createdAt,value
2023-03-06T00:01:49.662Z,7.20
2023-03-06T00:04:36.239Z,7.13
2023-03-06T00:07:22.929Z,8.37
2023-03-06T00:10:09.864Z,5.23
2023-03-06T00:12:57.023Z,6.80
2023-03-06T00:15:43.530Z,6.27
2023-03-06T00:18:31.021Z,5.90
2023-03-06T00:21:17.498Z,6.80
2023-03-06T00:24:03.659Z,6.17
2023-03-06T00:26:50.052Z,7.33
2023-03-06T00:29:36.880Z,4.77
2023-03-06T00:32:23.741Z,4.47
2023-03-06T00:35:11.801Z,4.67
2023-03-06T00:37:59.806Z,5.80
2023-03-06T00:40:46.174Z,5.90
2023-03-06T00:43:32.523Z,12.23
2023-03-06T00:46:18.683Z,7.13
2023-03-06T00:49:05.088Z,6.03
2023-03-06T00:51:52.851Z,5.23
2023-03-06T00:54:40.207Z,7.07
2023-03-06T00:57:26.619Z,6.73
2023-03-06T01:00:13.932Z,8.57
2023-03-06T01:03:00.497Z,4.43
2023-03-06T01:05:46.641Z,7.53
2023-03-06T01:08:34.505Z,7.67
2023-03-06T01:11:21.165Z,7.77
2023-03-06T01:14:07.854Z,7.70
2023-03-06T01:16:54.061Z,5.60
2023-03-06T01:19:40.425Z,5.23
2023-03-06T01:22:26.957Z,5.13
2023-03-06T01:25:14.438Z,6.77
2023-03-06T01:28:00.783Z,7.63
2023-03-06T01:30:47.300Z,6.67
2023-03-06T01:33:33.432Z,6.47
2023-03-06T01:36:20.262Z,9.57
2023-03-06T01:39:06.436Z,6.80
2023-03-06T01:41:54.184Z,4.93
2023-03-06T01:44:55.498Z,9.57
2023-03-06T01:47:41.668Z,5.00
2023-03-06T01:50:27.901Z,5.67
2023-03-06T01:53:14.419Z,7.20
2023-03-06T01:56:01.023Z,7.17
2023-03-06T01:58:49.750Z,5.93
2023-03-06T02:01:36.886Z,4.07
2023-03-06T02:04:23.691Z,4.77
2023-03-06T02:07:10.454Z,5.47
2023-03-06T02:09:56.547Z,5.87
2023-03-06T02:12:43.905Z,5.27
2023-03-06T02:15:32.152Z,8.67
2023-03-06T02:18:18.301Z,4.20
2023-03-06T02:21:07.217Z,6.77
2023-03-06T02:24:01.073Z,3.50
2023-03-06T02:26:49.251Z,6.43
2023-03-06T02:29:35.937Z,6.83
2023-03-06T02:32:22.522Z,8.43
2023-03-06T02:35:16.708Z,6.40
2023-03-06T02:38:05.765Z,4.43
2023-03-06T02:40:52.895Z,13.03
2023-03-06T02:43:42.064Z,3.43
2023-03-06T02:46:28.396Z,5.57
2023-03-06T02:49:14.634Z,4.83
2023-03-06T02:52:01.180Z,6.30
2023-03-06T02:54:47.613Z,3.87
2023-03-06T02:57:33.788Z,6.77
2023-03-06T03:00:22.373Z,6.00
2023-03-06T03:03:08.873Z,5.33
2023-03-06T03:05:55.370Z,6.90
2023-03-06T03:08:42.014Z,6.07
2023-03-06T03:11:28.054Z,7.20
2023-03-06T03:14:14.334Z,5.17
2023-03-06T03:17:02.403Z,4.30
2023-03-06T03:19:48.832Z,4.40
2023-03-06T03:22:35.207Z,4.53
2023-03-06T03:25:21.760Z,5.13
2023-03-06T03:28:08.050Z,5.67
2023-03-06T03:30:54.328Z,4.40
2023-03-06T03:33:42.366Z,5.27
2023-03-06T03:36:28.795Z,5.03
2023-03-06T03:39:15.299Z,6.33
2023-03-06T03:42:02.593Z,4.73
2023-03-06T03:44:49.069Z,3.57
2023-03-06T03:47:35.385Z,4.73
2023-03-06T03:50:23.212Z,6.17
2023-03-06T03:53:09.541Z,8.97
2023-03-06T03:55:55.768Z,8.67
2023-03-06T03:58:42.009Z,3.97
2023-03-06T04:01:28.948Z,3.97
2023-03-06T04:04:15.244Z,6.73
2023-03-06T04:07:04.443Z,7.87
2023-03-06T04:09:50.981Z,6.13
2023-03-06T04:12:37.748Z,8.73
2023-03-06T04:15:24.537Z,8.83
2023-03-06T04:18:11.040Z,10.40
2023-03-06T04:20:57.063Z,7.70
2023-03-06T04:23:45.000Z,5.70
2023-03-06T04:26:31.412Z,9.07
2023-03-06T04:29:17.661Z,4.80
2023-03-06T04:32:04.108Z,7.47
2023-03-06T04:34:50.985Z,4.33
2023-03-06T04:37:37.090Z,3.97
2023-03-06T04:40:27.439Z,4.60
2023-03-06T04:43:14.118Z,5.40
2023-03-06T04:46:00.340Z,5.80
2023-03-06T04:48:46.705Z,6.10
2023-03-06T04:51:33.628Z,8.57
2023-03-06T04:54:19.751Z,8.67
2023-03-06T04:57:07.514Z,6.43
2023-03-06T04:59:54.031Z,9.23
2023-03-06T05:02:41.178Z,13.30
2023-03-06T05:05:28.218Z,7.47
2023-03-06T05:08:16.019Z,7.63
2023-03-06T05:11:03.137Z,6.20
2023-03-06T05:13:51.629Z,8.70
2023-03-06T05:16:38.031Z,6.37
2023-03-06T05:19:24.517Z,4.37
2023-03-06T05:22:11.075Z,7.47
2023-03-06T05:24:57.413Z,6.50
2023-03-06T05:27:44.500Z,8.40
2023-03-06T05:30:32.084Z,5.33
2023-03-06T05:33:18.751Z,7.27
2023-03-06T05:36:05.399Z,10.83
2023-03-06T05:38:51.753Z,7.00
2023-03-06T05:41:37.953Z,3.80
2023-03-06T05:44:24.197Z,6.03
2023-03-06T05:47:12.105Z,5.20
2023-03-06T05:49:58.706Z,5.40
2023-03-06T05:52:44.797Z,3.60
2023-03-06T05:55:31.346Z,9.47
2023-03-06T05:58:17.454Z,7.23
2023-03-06T06:01:09.403Z,7.93
2023-03-06T06:03:57.325Z,8.23
2023-03-06T06:06:43.742Z,7.73
2023-03-06T06:09:30.591Z,7.17
2023-03-06T06:12:17.049Z,6.37
2023-03-06T06:15:03.373Z,5.30
2023-03-06T06:17:49.779Z,9.20
2023-03-06T06:20:37.834Z,7.00
2023-03-06T06:23:24.239Z,8.27
2023-03-06T06:26:11.227Z,6.83
2023-03-06T06:29:00.032Z,4.50
2023-03-06T06:31:46.721Z,4.17
2023-03-06T06:34:33.170Z,5.50
2023-03-06T06:37:20.832Z,4.10
2023-03-06T06:40:10.038Z,5.33
2023-03-06T06:42:56.378Z,1.97
2023-03-06T06:45:44.312Z,4.37
2023-03-06T06:48:32.157Z,3.30
2023-03-06T06:51:18.417Z,6.53
2023-03-06T06:54:05.951Z,4.97
2023-03-06T06:56:52.541Z,3.10
2023-03-06T06:59:38.840Z,4.27
2023-03-06T07:02:24.948Z,2.10
2023-03-06T07:05:11.723Z,3.60
2023-03-06T07:07:58.227Z,2.67
2023-03-06T07:10:45.952Z,3.83
2023-03-06T07:13:32.334Z,6.57
2023-03-06T07:16:18.807Z,4.23
2023-03-06T07:19:05.524Z,3.87
2023-03-06T07:21:51.687Z,3.47
2023-03-06T07:24:38.256Z,6.00
2023-03-06T07:27:26.334Z,4.43
2023-03-06T07:30:13.576Z,3.63
2023-03-06T07:32:59.969Z,3.93
2023-03-06T07:35:46.217Z,5.77
2023-03-06T07:38:32.976Z,5.80
2023-03-06T07:41:22.172Z,4.87
2023-03-06T07:44:10.482Z,2.73
2023-03-06T07:46:56.929Z,3.63
2023-03-06T07:49:43.464Z,5.50
2023-03-06T07:52:30.011Z,7.03
2023-03-06T07:55:16.451Z,4.37
2023-03-06T07:58:02.633Z,3.57
2023-03-06T08:00:50.271Z,5.33
2023-03-06T08:03:37.472Z,1.93
2023-03-06T08:06:24.896Z,4.27
2023-03-06T08:09:11.077Z,3.73
2023-03-06T08:11:57.721Z,5.57
2023-03-06T08:14:44.203Z,4.73
2023-03-06T08:17:31.803Z,3.97
2023-03-06T08:20:18.612Z,5.97
2023-03-06T08:23:04.965Z,3.57
2023-03-06T08:25:57.046Z,4.20
2023-03-06T08:28:43.840Z,4.30
2023-03-06T08:31:31.879Z,5.73
2023-03-06T08:34:20.659Z,3.93
2023-03-06T08:37:07.419Z,1.70
2023-03-06T08:39:53.764Z,5.03
2023-03-06T08:42:40.080Z,3.40
2023-03-06T08:45:26.524Z,3.27
2023-03-06T08:48:13.153Z,5.57
2023-03-06T08:51:01.012Z,4.47
2023-03-06T08:53:47.944Z,4.83
2023-03-06T08:56:35.228Z,5.30
2023-03-06T08:59:21.493Z,5.80
2023-03-06T09:02:07.927Z,4.07
2023-03-06T09:04:54.664Z,3.23
2023-03-06T09:07:42.225Z,3.67
2023-03-06T09:10:29.213Z,2.27
2023-03-06T09:13:15.693Z,4.97
2023-03-06T09:16:02.057Z,9.03
2023-03-06T09:18:50.413Z,3.93
2023-03-06T09:21:36.799Z,5.53
2023-03-06T09:24:24.569Z,4.90
2023-03-06T09:27:11.026Z,6.60
2023-03-06T09:29:57.488Z,5.30
2023-03-06T09:32:44.230Z,5.40
2023-03-06T09:35:30.758Z,5.37
2023-03-06T09:38:17.526Z,4.73
2023-03-06T09:41:11.666Z,6.47
2023-03-06T09:44:04.838Z,6.00
2023-03-06T09:47:07.023Z,6.13
2023-03-06T09:50:01.862Z,6.70
2023-03-06T09:52:56.595Z,6.33
2023-03-06T09:55:44.626Z,4.20
2023-03-06T09:58:34.198Z,4.90
2023-03-06T10:01:22.066Z,8.47
2023-03-06T10:04:12.419Z,5.47
2023-03-06T10:07:01.070Z,6.23
2023-03-06T10:09:49.409Z,6.70
2023-03-06T10:12:39.224Z,6.43
2023-03-06T10:15:28.576Z,4.90
2023-03-06T10:18:15.215Z,6.07
2023-03-06T10:21:17.255Z,9.20
2023-03-06T10:24:11.960Z,5.33
2023-03-06T10:27:01.147Z,6.73
2023-03-06T10:30:02.052Z,5.27
2023-03-06T10:32:55.935Z,7.70
2023-03-06T10:35:46.893Z,4.93
2023-03-06T10:38:37.532Z,3.77
2023-03-06T10:41:25.558Z,4.97
2023-03-06T10:44:19.148Z,7.23
2023-03-06T10:47:22.978Z,3.90
2023-03-06T10:50:24.081Z,6.77
2023-03-06T10:53:17.821Z,6.20
2023-03-06T10:56:04.287Z,6.90
2023-03-06T10:59:05.434Z,7.80
2023-03-06T11:01:52.412Z,4.73
2023-03-06T11:04:40.400Z,5.10
2023-03-06T11:07:28.905Z,7.00
2023-03-06T11:10:19.508Z,6.20
2023-03-06T11:13:07.665Z,7.07
2023-03-06T11:16:02.504Z,13.43
2023-03-06T11:18:59.007Z,7.73
2023-03-06T11:21:59.654Z,7.40
2023-03-06T11:24:48.812Z,7.40
2023-03-06T11:27:36.049Z,6.40
2023-03-06T11:30:24.796Z,5.73
2023-03-06T11:33:18.146Z,4.57
2023-03-06T11:36:10.557Z,6.17
2023-03-06T11:38:56.791Z,7.07
2023-03-06T11:41:48.693Z,4.60
2023-03-06T11:44:41.878Z,5.60
2023-03-06T11:47:30.616Z,6.40
2023-03-06T11:50:20.404Z,6.57
2023-03-06T11:53:07.457Z,7.67
2023-03-06T11:56:00.094Z,5.60
2023-03-06T11:59:19.800Z,5.87
2023-03-06T12:02:14.053Z,5.70
2023-03-06T12:05:06.905Z,6.10
2023-03-06T12:07:57.197Z,5.57
2023-03-06T12:10:51.475Z,6.63
2023-03-06T12:13:56.863Z,5.40
2023-03-06T12:16:51.121Z,9.63
2023-03-06T12:19:47.742Z,5.83
2023-03-06T12:22:53.398Z,7.17
2023-03-06T12:25:52.697Z,6.27
2023-03-06T12:28:46.436Z,4.80
2023-03-06T12:31:51.067Z,4.57
2023-03-06T12:34:47.434Z,5.40
2023-03-06T12:37:39.291Z,6.03
2023-03-06T12:40:38.052Z,4.70
2023-03-06T12:43:45.709Z,4.83
2023-03-06T12:46:42.761Z,6.90
2023-03-06T12:49:33.006Z,6.50
2023-03-06T12:52:29.581Z,6.20
2023-03-06T12:55:18.919Z,8.33
2023-03-06T12:58:24.886Z,5.50
2023-03-06T13:01:15.086Z,5.57
2023-03-06T13:04:06.985Z,6.83
2023-03-06T13:07:02.076Z,6.53
2023-03-06T13:09:59.933Z,6.07
2023-03-06T13:12:56.130Z,6.23
2023-03-06T13:15:43.718Z,5.37
2023-03-06T13:18:57.538Z,6.43
2023-03-06T13:21:45.275Z,5.17
2023-03-06T13:24:33.175Z,6.70
2023-03-06T13:27:45.689Z,8.10
2023-03-06T13:30:45.912Z,5.40
2023-03-06T13:33:50.742Z,6.47
2023-03-06T13:36:39.753Z,6.20
2023-03-06T13:39:26.287Z,5.30
2023-03-06T13:42:26.809Z,6.80
2023-03-06T13:45:16.653Z,7.90
2023-03-06T13:51:17.053Z,5.40
2023-03-06T13:54:18.029Z,5.00
2023-03-06T13:57:25.627Z,5.50
2023-03-06T14:00:21.770Z,9.87
2023-03-06T14:03:22.746Z,6.03
2023-03-06T14:06:23.830Z,5.03
2023-03-06T14:09:14.950Z,4.90
2023-03-06T14:12:03.341Z,4.90
2023-03-06T14:14:51.939Z,6.43
2023-03-06T14:17:40.307Z,6.40
2023-03-06T14:20:28.721Z,6.03
2023-03-06T14:23:15.482Z,4.87
2023-03-06T14:26:08.831Z,7.20
2023-03-06T14:28:56.311Z,6.30
2023-03-06T14:31:43.838Z,5.47
2023-03-06T14:34:32.264Z,5.23
2023-03-06T14:37:23.157Z,8.07
2023-03-06T14:40:11.000Z,6.07
2023-03-06T14:43:27.972Z,6.73
2023-03-06T14:46:18.704Z,10.63
2023-03-06T14:49:07.389Z,4.47
2023-03-06T14:51:55.908Z,5.13
2023-03-06T14:54:44.869Z,5.63
2023-03-06T14:57:31.465Z,5.27
2023-03-06T15:00:20.579Z,5.77
2023-03-06T15:03:08.660Z,8.03
2023-03-06T15:05:55.439Z,4.63
2023-03-06T15:08:45.030Z,5.33
2023-03-06T15:11:46.021Z,5.03
2023-03-06T15:14:33.968Z,8.50
2023-03-06T15:17:25.132Z,8.73
2023-03-06T15:20:26.242Z,4.67
2023-03-06T15:23:23.537Z,5.07
2023-03-06T15:26:29.375Z,6.27
2023-03-06T15:29:22.953Z,6.87
2023-03-06T15:32:16.924Z,7.13
2023-03-06T15:35:22.070Z,6.10
2023-03-06T15:38:23.930Z,6.40
2023-03-06T15:41:22.323Z,9.67
2023-03-06T15:44:12.016Z,5.67
2023-03-06T15:47:08.536Z,6.40
2023-03-06T15:49:56.371Z,8.17
2023-03-06T15:52:42.879Z,5.43
2023-03-06T15:55:29.096Z,6.80
2023-03-06T15:58:17.469Z,4.37
2023-03-06T16:01:03.923Z,35.07
2023-03-06T16:03:51.767Z,8.73
2023-03-06T16:06:38.521Z,12.87
2023-03-06T16:09:25.037Z,23.20
2023-03-06T16:12:15.094Z,101.60
2023-03-06T16:15:02.514Z,69.30
2023-03-06T16:17:49.507Z,23.83
2023-03-06T16:20:37.473Z,95.43
2023-03-06T16:23:24.035Z,39.63
2023-03-06T16:26:17.574Z,18.50
2023-03-06T16:29:03.706Z,42.47
2023-03-06T16:31:50.046Z,78.63
2023-03-06T16:34:36.410Z,235.47
2023-03-06T16:37:24.310Z,181.67
2023-03-06T16:40:16.615Z,126.77
2023-03-06T16:43:03.075Z,109.20
2023-03-06T16:45:49.513Z,42.00
2023-03-06T16:48:35.724Z,42.50
2023-03-06T16:51:23.109Z,24.97
2023-03-06T16:54:10.908Z,17.70
2023-03-06T16:56:57.358Z,12.97
2023-03-06T16:59:44.767Z,119.93
2023-03-06T17:02:31.273Z,539.33
2023-03-06T17:05:17.884Z,426.77
2023-03-06T17:08:05.829Z,511.23
2023-03-06T17:10:53.707Z,434.73
2023-03-06T17:13:40.267Z,382.53
2023-03-06T17:16:26.693Z,163.10
2023-03-06T17:19:14.420Z,401.63
2023-03-06T17:22:00.905Z,321.73
2023-03-06T17:24:49.969Z,68.77
2023-03-06T17:27:37.771Z,41.90
2023-03-06T17:30:24.076Z,43.43
2023-03-06T17:33:10.602Z,186.60
2023-03-06T17:36:00.377Z,741.03
2023-03-06T17:38:47.049Z,618.30
2023-03-06T17:41:34.339Z,134.97
2023-03-06T17:44:22.489Z,59.77
2023-03-06T17:47:08.782Z,91.67
2023-03-06T17:49:54.889Z,170.80
2023-03-06T17:52:41.388Z,67.43
2023-03-06T17:55:29.005Z,16.63
2023-03-06T17:58:15.269Z,19.13
2023-03-06T18:01:09.982Z,43.73
2023-03-06T18:03:56.371Z,46.20
2023-03-06T18:06:42.323Z,336.00
2023-03-06T18:09:29.421Z,241.10
2023-03-06T18:12:15.677Z,193.17
2023-03-06T18:15:01.622Z,40.97
2023-03-06T18:17:49.730Z,21.80
2023-03-06T18:20:36.390Z,30.37
2023-03-06T18:23:22.765Z,28.63
2023-03-06T18:26:11.687Z,35.83
2023-03-06T18:29:01.422Z,15.77
2023-03-06T18:31:50.050Z,55.90
2023-03-06T18:34:38.089Z,34.40
2023-03-06T18:37:24.217Z,27.57
2023-03-06T18:40:11.046Z,21.00
2023-03-06T18:42:57.227Z,25.47
2023-03-06T18:45:44.359Z,54.50
2023-03-06T18:48:30.955Z,36.50
2023-03-06T18:51:19.430Z,168.73
2023-03-06T18:54:06.242Z,127.10
2023-03-06T18:56:52.620Z,55.67
2023-03-06T18:59:38.969Z,113.67
2023-03-06T19:02:25.288Z,25.90
2023-03-06T19:05:11.938Z,14.87
2023-03-06T19:07:59.617Z,213.83
2023-03-06T19:10:47.229Z,19.63
2023-03-06T19:13:34.890Z,26.17
2023-03-06T19:16:22.309Z,21.27
2023-03-06T19:19:09.500Z,23.33
2023-03-06T19:21:55.792Z,22.43
2023-03-06T19:24:43.586Z,15.57
2023-03-06T19:27:30.206Z,15.93
2023-03-06T19:30:17.286Z,23.83
2023-03-06T19:33:03.426Z,27.83
2023-03-06T19:35:49.844Z,29.40
2023-03-06T19:38:36.252Z,78.37
2023-03-06T19:41:24.151Z,19.63
2023-03-06T19:44:12.236Z,17.33
2023-03-06T19:46:58.293Z,15.37
2023-03-06T19:49:44.664Z,19.53
2023-03-06T19:52:31.127Z,17.60
2023-03-06T19:55:17.679Z,18.33
2023-03-06T19:58:05.677Z,21.33
2023-03-06T20:00:52.043Z,24.47
2023-03-06T20:03:38.771Z,17.93
2023-03-06T20:06:25.662Z,16.37
2023-03-06T20:09:12.316Z,21.73
2023-03-06T20:11:58.719Z,20.43
2023-03-06T20:14:47.140Z,16.37
2023-03-06T20:17:34.045Z,15.80
2023-03-06T20:20:20.524Z,12.37
2023-03-06T20:23:06.766Z,14.53
2023-03-06T20:25:53.080Z,15.73
2023-03-06T20:28:39.836Z,18.33
2023-03-06T20:31:28.821Z,14.67
2023-03-06T20:34:15.548Z,14.10
2023-03-06T20:37:02.083Z,10.97
2023-03-06T20:39:48.639Z,11.13
2023-03-06T20:42:34.996Z,12.27
2023-03-06T20:45:21.217Z,11.60
2023-03-06T20:48:09.151Z,14.43
2023-03-06T20:51:02.235Z,10.03
2023-03-06T20:53:49.227Z,8.93
2023-03-06T20:56:36.266Z,6.67
2023-03-06T20:59:23.781Z,9.53
2023-03-06T21:02:11.354Z,10.23
2023-03-06T21:05:00.185Z,14.30
2023-03-06T21:07:46.658Z,15.37
2023-03-06T21:10:32.918Z,34.13
2023-03-06T21:13:19.412Z,27.57
2023-03-06T21:16:06.592Z,14.43
2023-03-06T21:18:53.196Z,13.53
2023-03-06T21:21:41.057Z,12.80
2023-03-06T21:24:27.652Z,23.73
2023-03-06T21:27:14.012Z,18.93
2023-03-06T21:30:00.041Z,14.83
2023-03-06T21:32:46.364Z,16.93
2023-03-06T21:35:32.699Z,19.40
2023-03-06T21:38:20.197Z,16.03
2023-03-06T21:41:10.672Z,11.67
2023-03-06T21:43:57.511Z,19.27
2023-03-06T21:46:43.838Z,19.60
2023-03-06T21:49:29.894Z,14.10
2023-03-06T21:52:16.033Z,12.50
2023-03-06T21:55:03.818Z,9.40
2023-03-06T21:57:50.898Z,12.30
2023-03-06T22:00:37.280Z,19.13
2023-03-06T22:03:23.772Z,31.33
2023-03-06T22:06:11.164Z,13.23
2023-03-06T22:08:58.389Z,9.83
2023-03-06T22:11:46.280Z,8.57
2023-03-06T22:14:32.781Z,9.93
2023-03-06T22:17:19.106Z,9.57
2023-03-06T22:20:05.469Z,12.73
2023-03-06T22:22:51.832Z,11.03
2023-03-06T22:25:38.005Z,14.33
2023-03-06T22:28:25.502Z,11.53
2023-03-06T22:31:13.000Z,17.23
2023-03-06T22:34:00.168Z,12.80
2023-03-06T22:36:46.423Z,11.37
2023-03-06T22:39:32.942Z,15.83
2023-03-06T22:42:19.090Z,12.77
2023-03-06T22:45:07.543Z,16.70
2023-03-06T22:48:02.360Z,14.10
2023-03-06T22:50:55.749Z,16.87
2023-03-06T22:53:42.634Z,12.30
2023-03-06T22:56:29.003Z,15.50
2023-03-06T22:59:15.259Z,13.83
2023-03-06T23:02:03.733Z,10.13
2023-03-06T23:04:52.336Z,10.87
2023-03-06T23:07:38.825Z,10.93
2023-03-06T23:10:25.073Z,12.83
2023-03-06T23:13:11.166Z,11.23
2023-03-06T23:15:57.521Z,10.30
2023-03-06T23:18:45.246Z,8.87
2023-03-06T23:21:31.867Z,11.97
2023-03-06T23:24:18.268Z,14.77
2023-03-06T23:27:05.319Z,13.80
2023-03-06T23:29:55.372Z,11.93
2023-03-06T23:32:42.042Z,16.17
2023-03-06T23:35:30.424Z,14.77
2023-03-06T23:38:16.954Z,14.40
2023-03-06T23:41:04.378Z,10.73
2023-03-06T23:43:52.416Z,9.70
2023-03-06T23:46:40.550Z,11.57
2023-03-06T23:49:27.033Z,9.23
2023-03-06T23:52:14.751Z,10.07
2023-03-06T23:55:01.328Z,11.63
2023-03-06T23:57:47.933Z,10.80
